Time;durP1;ratioP1;P1;durP2;ratioP2;P2;SDS_P1;SDS_P2;PMS_P1;PMS_P2;Temp;Humidity;BMP_temperature;BMP_pressure;BME280_temperature;BME280_humidity;BME280_pressure;Samples;Min_cycle;Max_cycle;Signal;HPM_P1;HPM_P2
2024/01/17 00:00:38;;;;;;;5.33;2.20;;;;;;;;;;5186651;23;20024;-83
2024/01/17 00:02:55;;;;;;;6.55;2.35;;;;;;;;;;5188232;22;20246;-82
2024/01/17 00:05:04;;;;;;;7.22;1.75;;;;;;;;;;5187834;23;20024;-83
2024/01/17 00:07:10;;;;;;;8.45;2.40;;;;;;;;;;5212284;22;20046;-83
2024/01/17 00:09:14;;;;;;;5.68;1.80;;;;;;;;;;5188892;22;20020;-83
2024/01/17 00:11:37;;;;;;;8.88;3.05;;;;;;;;;;5187472;23;20020;-82
2024/01/17 00:16:32;;;;;;;4.43;1.80;;;;;;;;;;5189335;23;20020;-82
2024/01/17 00:18:40;;;;;;;7.05;1.65;;;;;;;;;;5213964;22;20000;-82
2024/01/17 00:21:07;;;;;;;6.03;2.22;;;;;;;;;;5188126;23;20020;-82
2024/01/17 00:23:11;;;;;;;7.22;2.13;;;;;;;;;;5188034;23;20065;-82
2024/01/17 00:28:23;;;;;;;7.82;2.05;;;;;;;;;;5216377;22;20039;-83
2024/01/17 00:30:34;;;;;;;4.85;2.10;;;;;;;;;;5216000;22;19995;-82
2024/01/17 00:33:06;;;;;;;3.75;1.75;;;;;;;;;;5215205;22;20011;-83
2024/01/17 00:35:11;;;;;;;9.95;2.67;;;;;;;;;;5215330;22;20090;-82
2024/01/17 00:37:13;;;;;;;7.38;2.75;;;;;;;;;;5217012;22;20046;-83
2024/01/17 00:39:34;;;;;;;9.70;2.25;;;;;;;;;;5190156;23;20016;-83
2024/01/17 00:41:53;;;;;;;7.80;2.05;;;;;;;;;;5188902;22;20023;-83
2024/01/17 00:44:00;;;;;;;3.25;1.77;;;;;;;;;;5209934;22;20082;-82
2024/01/17 00:46:04;;;;;;;3.25;1.70;;;;;;;;;;5214455;22;20016;-83
2024/01/17 00:48:05;;;;;;;5.20;2.22;;;;;;;;;;5215271;22;20022;-81
2024/01/17 00:50:25;;;;;;;4.15;1.88;;;;;;;;;;5191052;22;20027;-83
2024/01/17 00:52:34;;;;;;;6.47;2.20;;;;;;;;;;5216308;22;20006;-83
2024/01/17 00:55:04;;;;;;;5.28;2.33;;;;;;;;;;5189851;22;20020;-84
2024/01/17 00:57:07;;;;;;;5.22;1.77;;;;;;;;;;5215018;22;20020;-83
2024/01/17 00:59:14;;;;;;;4.55;2.20;;;;;;;;;;5190235;22;20039;-83
2024/01/17 01:01:19;;;;;;;5.72;2.13;;;;;;;;;;5189880;23;20016;-83
2024/01/17 01:03:21;;;;;;;5.35;1.80;;;;;;;;;;5215112;22;20040;-83
2024/01/17 01:05:28;;;;;;;3.88;1.73;;;;;;;;;;5217048;22;20015;-83
2024/01/17 01:07:31;;;;;;;6.55;2.63;;;;;;;;;;5213948;22;20023;-83
2024/01/17 01:09:35;;;;;;;6.15;2.17;;;;;;;;;;5213011;22;20026;-83
2024/01/17 01:11:37;;;;;;;3.92;2.10;;;;;;;;;;5216174;22;20020;-83
2024/01/17 01:13:39;;;;;;;7.00;2.10;;;;;;;;;;5215929;22;20008;-83
2024/01/17 01:15:45;;;;;;;6.95;1.75;;;;;;;;;;5215424;22;20015;-83
2024/01/17 01:17:49;;;;;;;5.63;2.17;;;;;;;;;;5189559;23;20019;-83
2024/01/17 01:19:56;;;;;;;8.73;3.13;;;;;;;;;;5214940;22;20095;-83
2024/01/17 01:22:02;;;;;;;6.45;2.20;;;;;;;;;;5213965;22;20019;-83
2024/01/17 01:24:06;;;;;;;5.68;2.05;;;;;;;;;;5214314;22;20008;-83
2024/01/17 01:26:14;;;;;;;4.72;1.85;;;;;;;;;;5242205;22;20074;-83
2024/01/17 01:28:16;;;;;;;6.05;2.58;;;;;;;;;;5214245;22;20408;-82
2024/01/17 01:30:35;;;;;;;7.25;2.65;;;;;;;;;;5188558;23;20030;-83
2024/01/17 01:32:49;;;;;;;;;;;;;;;;;;5214886;22;20049;-83
2024/01/17 01:35:01;;;;;;;5.65;2.70;;;;;;;;;;5213695;22;19915;-83
2024/01/17 01:37:05;;;;;;;6.70;2.58;;;;;;;;;;5215014;22;20018;-83
2024/01/17 01:39:21;;;;;;;5.05;2.47;;;;;;;;;;5215905;22;20015;-83
2024/01/17 01:41:38;;;;;;;8.43;2.80;;;;;;;;;;5214573;22;20020;-83
2024/01/17 01:43:42;;;;;;;5.78;2.60;;;;;;;;;;5214392;22;20119;-83
2024/01/17 01:45:59;;;;;;;7.85;2.53;;;;;;;;;;5215257;22;20018;-82
2024/01/17 01:48:07;;;;;;;6.82;2.67;;;;;;;;;;5240580;22;20059;-82
2024/01/17 01:50:11;;;;;;;9.77;2.78;;;;;;;;;;5189080;23;20020;-83
2024/01/17 01:52:17;;;;;;;6.70;3.20;;;;;;;;;;5213582;22;20016;-82
2024/01/17 01:54:21;;;;;;;;;;;;;;;;;;5241172;22;20059;-83
2024/01/17 01:56:32;;;;;;;8.55;3.00;;;;;;;;;;5240438;22;20246;-83
2024/01/17 01:58:43;;;;;;;5.40;2.38;;;;;;;;;;5212579;22;20073;-83
2024/01/17 02:00:48;;;;;;;9.00;3.22;;;;;;;;;;5211317;22;20012;-82
2024/01/17 02:02:50;;;;;;;17.27;5.07;;;;;;;;;;5236437;22;20089;-83
2024/01/17 02:04:54;;;;;;;10.75;4.47;;;;;;;;;;5186552;23;20051;-83
2024/01/17 02:07:03;;;;;;;10.48;3.10;;;;;;;;;;5185557;23;20112;-83
2024/01/17 02:09:16;;;;;;;7.88;3.45;;;;;;;;;;5239168;22;20022;-83
2024/01/17 02:11:22;;;;;;;9.13;3.90;;;;;;;;;;5239908;22;20015;-82
2024/01/17 02:13:27;;;;;;;11.15;3.72;;;;;;;;;;5211702;22;20019;-83
2024/01/17 02:15:32;;;;;;;6.00;3.42;;;;;;;;;;5237363;22;20035;-82
2024/01/17 02:17:48;;;;;;;6.25;3.53;;;;;;;;;;5211633;22;20020;-82
2024/01/17 02:19:49;;;;;;;9.15;4.18;;;;;;;;;;5211645;22;20020;-82
2024/01/17 02:22:11;;;;;;;10.90;3.88;;;;;;;;;;5211542;22;20016;-83
2024/01/17 02:24:23;;;;;;;12.57;4.30;;;;;;;;;;5185523;23;20020;-82
2024/01/17 02:26:35;;;;;;;12.48;4.30;;;;;;;;;;5185583;23;20020;-83
2024/01/17 02:28:43;;;;;;;7.63;3.45;;;;;;;;;;5185851;23;20027;-83
2024/01/17 02:30:50;;;;;;;5.95;3.38;;;;;;;;;;5186287;23;20050;-83
2024/01/17 02:33:03;;;;;;;10.40;4.47;;;;;;;;;;5184469;23;20020;-83
2024/01/17 02:35:33;;;;;;;8.82;4.13;;;;;;;;;;5186727;22;20000;-82
2024/01/17 02:37:47;;;;;;;8.38;3.90;;;;;;;;;;5187830;23;20043;-83
2024/01/17 02:40:12;;;;;;;12.75;4.03;;;;;;;;;;5187285;23;20016;-83
2024/01/17 02:42:23;;;;;;;8.43;3.85;;;;;;;;;;5188619;22;20007;-83
2024/01/17 02:45:00;;;;;;;15.18;3.92;;;;;;;;;;5188729;23;20023;-83
2024/01/17 02:47:12;;;;;;;10.38;4.50;;;;;;;;;;5187562;23;20016;-83
2024/01/17 02:49:19;;;;;;;10.93;4.20;;;;;;;;;;5188652;23;20055;-82
2024/01/17 02:51:20;;;;;;;8.65;3.75;;;;;;;;;;5188444;23;20027;-83
2024/01/17 02:53:27;;;;;;;6.43;3.65;;;;;;;;;;5188559;23;20016;-83
2024/01/17 02:55:31;;;;;;;8.35;3.83;;;;;;;;;;5188471;23;20023;-83
2024/01/17 02:57:39;;;;;;;12.23;4.57;;;;;;;;;;5188462;23;20020;-82
2024/01/17 03:00:00;;;;;;;11.45;4.85;;;;;;;;;;5188749;23;20020;-82
2024/01/17 03:02:04;;;;;;;8.50;3.72;;;;;;;;;;5188205;23;20020;-82
2024/01/17 03:04:10;;;;;;;13.00;5.20;;;;;;;;;;5189570;23;20047;-82
2024/01/17 03:06:24;;;;;;;8.90;4.32;;;;;;;;;;5188415;23;20020;-82
2024/01/17 03:08:44;;;;;;;7.93;3.85;;;;;;;;;;5188081;23;20016;-82
2024/01/17 03:10:45;;;;;;;8.95;4.22;;;;;;;;;;5186296;23;20344;-82
2024/01/17 03:12:51;;;;;;;9.52;4.57;;;;;;;;;;5187298;22;20012;-82
2024/01/17 03:15:03;;;;;;;17.15;4.63;;;;;;;;;;5188575;23;20027;-82
2024/01/17 03:17:09;;;;;;;11.75;4.35;;;;;;;;;;5190590;22;20020;-82
2024/01/17 03:19:18;;;;;;;15.07;5.45;;;;;;;;;;5190641;23;20016;-82
2024/01/17 03:21:28;;;;;;;13.20;5.03;;;;;;;;;;5165936;23;20028;-82
2024/01/17 03:23:31;;;;;;;9.95;4.35;;;;;;;;;;5224446;22;20003;-82
2024/01/17 03:25:46;;;;;;;10.65;5.13;;;;;;;;;;5190335;23;20023;-82
2024/01/17 03:28:06;;;;;;;9.57;4.60;;;;;;;;;;5243307;22;19999;-82
2024/01/17 03:30:14;;;;;;;9.65;4.57;;;;;;;;;;5242413;22;20046;-83
2024/01/17 03:32:23;;;;;;;6.32;3.97;;;;;;;;;;5242583;22;20022;-82
2024/01/17 03:37:23;;;;;;;9.90;5.50;;;;;;;;;;5240958;22;20063;-82
2024/01/17 03:39:50;;;;;;;8.45;4.40;;;;;;;;;;5188829;23;20043;-82
2024/01/17 03:42:17;;;;;;;12.82;4.90;;;;;;;;;;5213062;22;20019;-82
2024/01/17 03:44:22;;;;;;;9.77;4.55;;;;;;;;;;5213925;22;20015;-83
2024/01/17 03:52:03;;;;;;;12.98;4.75;;;;;;;;;;5242856;22;20029;-82
2024/01/17 03:54:10;;;;;;;9.85;5.50;;;;;;;;;;5192073;22;20000;-82
2024/01/17 03:56:15;;;;;;;8.48;5.40;;;;;;;;;;5191189;23;20031;-82
2024/01/17 03:58:36;;;;;;;8.43;4.55;;;;;;;;;;5216986;22;20019;-82
2024/01/17 04:00:48;;;;;;;11.52;4.80;;;;;;;;;;5216868;22;20023;-82
2024/01/17 04:03:14;;;;;;;12.88;4.82;;;;;;;;;;5216795;22;20015;-82
2024/01/17 04:05:48;;;;;;;10.82;4.07;;;;;;;;;;5217404;22;20054;-82
2024/01/17 04:07:54;;;;;;;10.48;4.55;;;;;;;;;;5217481;22;20000;-82
2024/01/17 04:09:57;;;;;;;10.95;5.07;;;;;;;;;;5242300;22;20066;-82
2024/01/17 04:12:06;;;;;;;15.68;6.43;;;;;;;;;;5217842;22;20079;-82
2024/01/17 04:14:24;;;;;;;14.98;4.88;;;;;;;;;;5244154;22;20024;-82
2024/01/17 04:16:31;;;;;;;11.93;5.50;;;;;;;;;;5218089;22;20030;-82
2024/01/17 04:18:38;;;;;;;10.23;4.68;;;;;;;;;;5243356;22;20022;-82
2024/01/17 04:20:58;;;;;;;12.45;5.57;;;;;;;;;;5215784;22;20000;-82
2024/01/17 04:23:00;;;;;;;14.85;5.15;;;;;;;;;;5216880;22;20035;-82
2024/01/17 04:25:04;;;;;;;8.38;4.55;;;;;;;;;;5217221;22;20024;-82
2024/01/17 04:27:10;;;;;;;10.82;5.43;;;;;;;;;;5217585;22;20042;-82
2024/01/17 04:29:13;;;;;;;12.52;5.10;;;;;;;;;;5191612;23;20020;-82
2024/01/17 04:31:27;;;;;;;11.65;4.95;;;;;;;;;;5216256;22;20016;-82
2024/01/17 04:33:38;;;;;;;13.43;5.10;;;;;;;;;;5217158;22;20008;-82
2024/01/17 04:35:57;;;;;;;13.98;4.78;;;;;;;;;;5192785;22;20050;-82
2024/01/17 04:38:12;;;;;;;16.83;6.22;;;;;;;;;;5190461;22;20024;-82
2024/01/17 04:40:21;;;;;;;13.20;6.10;;;;;;;;;;5217983;22;20003;-82
2024/01/17 04:42:54;;;;;;;9.00;4.78;;;;;;;;;;5217714;22;20020;-83
2024/01/17 04:45:04;;;;;;;20.42;6.22;;;;;;;;;;5217310;22;20012;-82
2024/01/17 04:47:31;;;;;;;13.13;5.43;;;;;;;;;;5218851;22;20026;-82
2024/01/17 04:49:48;;;;;;;17.08;6.47;;;;;;;;;;5218117;22;20000;-81
2024/01/17 04:52:17;;;;;;;15.95;5.40;;;;;;;;;;5219119;22;20020;-83
2024/01/17 04:54:30;;;;;;;11.88;5.63;;;;;;;;;;5218739;22;20080;-82
2024/01/17 04:56:37;;;;;;;12.73;5.80;;;;;;;;;;5218017;22;20016;-82
2024/01/17 04:58:47;;;;;;;9.05;5.53;;;;;;;;;;5192779;22;20004;-83
2024/01/17 05:00:51;;;;;;;12.50;5.80;;;;;;;;;;5219183;22;20010;-82
2024/01/17 05:03:17;;;;;;;11.50;5.80;;;;;;;;;;5193039;22;20023;-82
2024/01/17 05:05:19;;;;;;;16.27;5.22;;;;;;;;;;5192471;22;20008;-83
2024/01/17 05:07:39;;;;;;;17.33;7.25;;;;;;;;;;5216807;22;20020;-82
2024/01/17 05:10:14;;;;;;;11.43;6.68;;;;;;;;;;5215071;22;20015;-82
2024/01/17 05:18:07;;;;;;;12.10;5.35;;;;;;;;;;5217075;22;20076;-83
2024/01/17 05:20:09;;;;;;;14.35;5.85;;;;;;;;;;5212271;22;20003;-83
2024/01/17 05:22:32;;;;;;;11.75;5.10;;;;;;;;;;5214543;22;20058;-83
2024/01/17 05:24:42;;;;;;;14.05;6.80;;;;;;;;;;5190441;22;20039;-83
2024/01/17 05:27:04;;;;;;;15.93;5.82;;;;;;;;;;5215080;22;20027;-83
2024/01/17 05:29:24;;;;;;;12.25;5.65;;;;;;;;;;5189928;23;20042;-83
2024/01/17 05:32:00;;;;;;;18.27;6.70;;;0.60;99.90;;;;;;5188911;23;20024;-83
2024/01/17 05:34:31;;;;;;;15.05;5.95;;;-0.60;99.90;;;;;;5190363;22;20016;-83
2024/01/17 05:36:44;;;;;;;14.43;5.97;;;-1.00;99.90;;;;;;5214520;22;20016;-82
2024/01/17 05:39:01;;;;;;;17.45;6.72;;;-1.10;99.90;;;;;;5189897;22;20063;-82
2024/01/17 05:41:20;;;;;;;14.60;6.57;;;-0.70;99.90;;;;;;5217250;22;20027;-83
2024/01/17 05:43:26;;;;;;;12.32;6.20;;;-0.50;99.90;;;;;;5214222;22;20050;-83
2024/01/17 05:45:29;;;;;;;13.30;6.30;;;0.50;99.90;;;;;;5214456;22;20046;-83
2024/01/17 05:47:50;;;;;;;14.90;6.97;;;-0.60;99.90;;;;;;5188178;23;20027;-83
2024/01/17 05:49:53;;;;;;;11.65;5.30;;;0.20;99.90;;;;;;5215578;22;20010;-84
2024/01/17 05:51:59;;;;;;;11.90;5.28;;;-0.70;99.90;;;;;;5217504;22;20028;-84
2024/01/17 05:54:03;;;;;;;10.73;5.53;;;-0.70;99.90;;;;;;5216880;22;20050;-83
2024/01/17 05:56:14;;;;;;;11.85;5.60;;;-0.70;99.90;;;;;;5191320;23;20004;-83
2024/01/17 05:59:02;;;;;;;16.75;6.70;;;-1.20;99.90;;;;;;5191044;22;20020;-83
2024/01/17 06:01:21;;;;;;;24.83;7.35;;;-1.40;99.90;;;;;;5216316;22;20015;-83
2024/01/17 06:03:46;;;;;;;15.75;5.63;;;-0.30;99.90;;;;;;5217318;22;20003;-83
2024/01/17 06:06:36;;;;;;;9.75;5.20;;;-0.80;99.90;;;;;;5190729;23;20000;-83
2024/01/17 06:09:01;;;;;;;15.80;6.15;;;-0.30;99.90;;;;;;5189066;23;20020;-83
2024/01/17 06:11:27;;;;;;;14.57;7.38;;;-0.50;99.90;;;;;;5213907;22;20011;-83
2024/01/17 06:13:44;;;;;;;12.18;5.75;;;-0.90;99.90;;;;;;5213773;22;20022;-83
2024/01/17 06:15:56;;;;;;;13.80;6.03;;;-0.90;99.90;;;;;;5188919;22;20024;-83
2024/01/17 06:18:01;;;;;;;13.27;7.00;;;-0.90;99.90;;;;;;5213331;22;20020;-83
2024/01/17 06:20:27;;;;;;;14.02;6.70;;;-0.90;99.90;;;;;;5189309;22;20018;-83
2024/01/17 06:22:32;;;;;;;12.98;6.05;;;-0.90;99.90;;;;;;5214699;22;20016;-83
2024/01/17 06:24:49;;;;;;;14.05;5.78;;;-2.00;99.90;;;;;;5213535;22;20045;-83
2024/01/17 06:26:53;;;;;;;30.92;7.47;;;-0.90;99.90;;;;;;5215397;22;20063;-83
2024/01/17 06:29:02;;;;;;;9.10;5.35;;;-1.80;99.90;;;;;;5187627;23;20084;-83
2024/01/17 06:31:09;;;;;;;15.48;6.32;;;-0.80;99.90;;;;;;5213739;22;20019;-83
2024/01/17 06:33:11;;;;;;;12.48;5.88;;;-1.00;99.90;;;;;;5244652;22;19999;-83
2024/01/17 06:35:19;;;;;;;18.95;6.57;;;-0.90;99.90;;;;;;5170581;22;20016;-83
2024/01/17 06:37:32;;;;;;;10.45;4.93;;;-0.90;99.90;;;;;;5219902;22;20008;-83
2024/01/17 06:39:44;;;;;;;13.85;5.28;;;-0.90;99.90;;;;;;5194317;22;20004;-83
2024/01/17 06:42:06;;;;;;;14.70;6.45;;;-0.80;99.90;;;;;;5194271;23;20014;-82
2024/01/17 06:44:23;;;;;;;13.93;7.03;;;-0.90;99.90;;;;;;5246616;22;19999;-83
2024/01/17 06:46:46;;;;;;;13.82;5.38;;;-0.90;99.90;;;;;;5245146;22;20022;-82
2024/01/17 06:52:06;;;;;;;8.10;4.07;;;-1.10;99.90;;;;;;5245283;22;19998;-83
2024/01/17 06:54:25;;;;;;;13.50;5.63;;;-1.00;99.90;;;;;;5216967;22;20020;-83
2024/01/17 06:56:39;;;;;;;13.65;5.68;;;-0.90;99.90;;;;;;5219234;22;20004;-83
2024/01/17 06:58:44;;;;;;;10.82;5.03;;;-1.00;99.90;;;;;;5217662;22;20016;-83
2024/01/17 07:00:46;;;;;;;13.45;6.10;;;-1.00;99.90;;;;;;5191278;23;20016;-83
2024/01/17 07:03:10;;;;;;;13.45;6.03;;;-0.10;99.90;;;;;;5216704;22;20020;-83
2024/01/17 07:05:48;;;;;;;12.48;5.47;;;-1.00;99.90;;;;;;5240693;22;20023;-83
2024/01/17 07:08:10;;;;;;;13.55;5.90;;;-0.90;99.90;;;;;;5191453;23;20015;-83
2024/01/17 07:10:27;;;;;;;12.63;5.50;;;-1.00;99.90;;;;;;5216204;22;20000;-83
2024/01/17 07:12:30;;;;;;;18.23;5.35;;;-1.00;99.90;;;;;;5213397;22;20067;-83
2024/01/17 07:14:48;;;;;;;16.58;6.28;;;-0.90;99.90;;;;;;5191839;22;20024;-83
2024/01/17 07:16:57;;;;;;;14.63;6.60;;;-0.90;99.90;;;;;;5243696;22;20078;-83
2024/01/17 07:19:07;;;;;;;14.05;5.15;;;-0.90;99.90;;;;;;5191953;22;20027;-83
2024/01/17 07:21:23;;;;;;;12.73;4.22;;;-1.00;99.90;;;;;;5217609;22;20023;-83
2024/01/17 07:23:28;;;;;;;12.80;5.50;;;-1.60;99.90;;;;;;5216400;22;20023;-83
2024/01/17 07:25:36;;;;;;;15.25;7.03;;;-1.00;99.90;;;;;;5213802;22;20053;-83
2024/01/17 07:27:58;;;;;;;14.82;6.72;;;-1.00;99.90;;;;;;5215948;22;20020;-83
2024/01/17 07:30:14;;;;;;;10.32;5.00;;;-1.70;99.90;;;;;;5215175;22;20080;-83
2024/01/17 07:32:17;;;;;;;11.02;5.85;;;-1.10;99.90;;;;;;5217198;22;20025;-83
2024/01/17 07:34:25;;;;;;;13.20;6.10;;;-1.00;99.90;;;;;;5216230;22;20016;-83
2024/01/17 07:36:38;;;;;;;18.98;4.95;;;-1.10;99.90;;;;;;5216281;22;20015;-83
2024/01/17 07:38:44;;;;;;;11.88;5.60;;;-1.10;99.90;;;;;;5215469;22;20051;-83
2024/01/17 07:40:58;;;;;;;13.38;5.00;;;-1.10;99.90;;;;;;5215639;22;20016;-83
2024/01/17 07:43:08;;;;;;;8.48;5.22;;;-1.10;99.90;;;;;;5187939;22;20450;-83
2024/01/17 07:45:15;;;;;;;9.10;5.22;;;-1.10;99.90;;;;;;5215108;22;20008;-83
2024/01/17 07:47:49;;;;;;;12.23;5.28;;;-1.10;99.90;;;;;;5214200;22;20022;-83
2024/01/17 07:50:01;;;;;;;8.65;5.13;;;-1.10;99.90;;;;;;5214630;22;20050;-83
2024/01/17 07:52:20;;;;;;;12.23;4.63;;;-1.40;99.90;;;;;;5189796;22;20027;-83
2024/01/17 07:54:38;;;;;;;13.85;6.28;;;-1.10;99.90;;;;;;5190057;22;20427;-83
2024/01/17 07:57:17;;;;;;;9.10;4.82;;;-1.10;99.90;;;;;;5189498;22;20000;-83
2024/01/17 07:59:49;;;;;;;13.80;5.88;;;-1.70;99.90;;;;;;5216227;22;20217;-81
2024/01/17 08:02:06;;;;;;;12.88;5.65;;;-0.60;99.90;;;;;;5190657;22;20044;-83
2024/01/17 08:04:28;;;;;;;13.98;5.95;;;-2.00;99.90;;;;;;5215759;22;20011;-81
2024/01/17 08:06:46;;;;;;;12.95;5.57;;;-1.10;99.90;;;;;;5215321;22;20022;-82
2024/01/17 08:08:59;;;;;;;11.27;5.78;;;-1.10;99.90;;;;;;5215919;22;20046;-81
2024/01/17 08:11:30;;;;;;;13.82;5.60;;;-1.20;99.90;;;;;;5215839;22;20023;-81
2024/01/17 08:13:34;;;;;;;14.32;5.97;;;-1.30;99.90;;;;;;5215960;22;20015;-81
2024/01/17 08:19:08;;;;;;;12.57;5.93;;;-1.20;99.90;;;;;;5216727;22;20028;-81
2024/01/17 08:21:15;;;;;;;16.55;7.07;;;-1.20;99.90;;;;;;5216408;22;20026;-81
2024/01/17 08:23:17;;;;;;;12.48;4.80;;;-1.00;99.90;;;;;;5213175;22;20011;-81
2024/01/17 08:25:22;;;;;;;9.82;5.60;;;-1.20;99.90;;;;;;5215225;22;20024;-81
2024/01/17 08:27:38;;;;;;;12.95;5.32;;;-1.60;99.90;;;;;;5214566;22;20015;-81
2024/01/17 08:29:53;;;;;;;11.25;6.05;;;;;;;;;;5212373;22;20055;-82
2024/01/17 08:32:04;;;;;;;11.90;5.65;;;;;;;;;;5215333;22;20030;-82
2024/01/17 08:34:15;;;;;;;12.52;6.22;;;;;;;;;;5215216;22;20019;-81
2024/01/17 08:36:27;;;;;;;12.00;5.93;;;;;;;;;;5189664;23;20060;-82
2024/01/17 08:38:43;;;;;;;12.05;5.50;;;;;;;;;;5215834;22;20020;-82
2024/01/17 08:40:47;;;;;;;13.20;5.85;;;;;;;;;;5212607;22;20015;-82
2024/01/17 08:43:07;;;;;;;12.32;5.90;;;;;;;;;;5188752;23;20098;-83
2024/01/17 08:45:08;;;;;;;10.82;5.40;;;;;;;;;;5162721;23;20048;-83
2024/01/17 08:47:19;;;;;;;12.15;5.72;;;;;;;;;;5215455;22;20023;-81
2024/01/17 08:49:33;;;;;;;14.48;6.18;;;;;;;;;;5214133;22;20019;-83
2024/01/17 08:51:43;;;;;;;12.95;5.90;;;;;;;;;;5215256;22;20008;-83
2024/01/17 08:53:49;;;;;;;9.93;4.97;;;;;;;;;;5214690;22;20015;-83
2024/01/17 08:56:10;;;;;;;9.65;6.22;;;;;;;;;;5215174;22;20022;-82
2024/01/17 08:58:19;;;;;;;15.05;6.35;;;;;;;;;;5214846;22;20020;-82
2024/01/17 09:00:31;;;;;;;11.32;6.40;;;;;;;;;;5214693;22;20035;-82
2024/01/17 09:02:34;;;;;;;9.48;4.90;;;;;;;;;;5214224;22;20015;-82
2024/01/17 09:04:43;;;;;;;11.55;6.13;;;;;;;;;;5210558;22;20012;-82
2024/01/17 09:06:55;;;;;;;16.52;6.88;;;;;;;;;;5163226;23;20021;-83
2024/01/17 09:09:11;;;;;;;11.25;4.72;;;;;;;;;;5216162;22;20016;-82
2024/01/17 09:11:15;;;;;;;12.55;4.95;;;;;;;;;;5215024;22;20035;-82
2024/01/17 09:13:26;;;;;;;9.95;4.90;;;;;;;;;;5215619;22;20019;-82
2024/01/17 09:15:39;;;;;;;12.55;5.43;;;;;;;;;;5213748;22;20048;-82
2024/01/17 09:18:00;;;;;;;11.75;5.35;;;;;;;;;;5215546;22;20039;-82
2024/01/17 09:20:06;;;;;;;12.63;4.78;;;;;;;;;;5214485;22;20024;-83
2024/01/17 09:22:15;;;;;;;8.25;4.75;;;;;;;;;;5214703;22;20015;-82
2024/01/17 09:24:22;;;;;;;9.25;4.38;;;;;;;;;;5214477;22;20019;-82
2024/01/17 09:26:40;;;;;;;10.88;5.32;;;;;;;;;;5189507;22;20067;-82
2024/01/17 09:28:47;;;;;;;9.52;4.57;;;;;;;;;;5189059;22;20028;-82
2024/01/17 09:31:11;;;;;;;8.07;4.75;;;;;;;;;;5214488;22;20059;-83
2024/01/17 09:33:19;;;;;;;13.30;4.72;;;;;;;;;;5215547;22;20042;-82
2024/01/17 09:35:35;;;;;;;11.30;5.15;;;;;;;;;;5214446;22;20022;-82
2024/01/17 09:37:47;;;;;;;9.98;4.90;;;;;;;;;;5215478;22;20065;-82
2024/01/17 09:39:52;;;;;;;12.13;5.35;;;;;;;;;;5216087;22;20020;-82
2024/01/17 09:42:01;;;;;;;14.85;5.43;;;;;;;;;;5214076;22;20031;-82
2024/01/17 09:44:16;;;;;;;12.45;5.22;;;;;;;;;;5187638;23;20023;-82
2024/01/17 09:46:29;;;;;;;10.57;4.45;;;;;;;;;;5212993;22;20012;-82
2024/01/17 09:48:32;;;;;;;12.45;5.30;;;;;;;;;;5212997;22;20016;-81
2024/01/17 09:50:39;;;;;;;10.63;5.63;;;;;;;;;;5213925;22;20034;-82
2024/01/17 09:52:48;;;;;;;12.15;5.93;;;;;;;;;;5212244;22;20006;-82
2024/01/17 09:54:53;;;;;;;11.27;5.57;;;;;;;;;;5213413;22;20015;-81
2024/01/17 09:57:03;;;;;;;12.30;5.27;;;;;;;;;;5188592;22;20099;-81
2024/01/17 09:59:25;;;;;;;8.85;5.13;;;;;;;;;;5214021;22;20047;-82
2024/01/17 10:01:32;;;;;;;12.70;5.00;;;;;;;;;;5211940;22;20016;-81
2024/01/17 10:03:46;;;;;;;15.13;5.60;;;;;;;;;;5212486;22;20023;-81
2024/01/17 10:05:57;;;;;;;10.40;5.50;;;;;;;;;;5213217;22;20019;-82
2024/01/17 10:08:09;;;;;;;11.27;5.28;;;;;;;;;;5212187;22;20015;-85
2024/01/17 10:10:10;;;;;;;10.10;4.60;;;;;;;;;;5210588;22;20016;-80
2024/01/17 10:12:19;;;;;;;8.50;4.70;;;;;;;;;;5184357;23;20020;-80
2024/01/17 10:14:28;;;;;;;;;;;;;;;;;;5185095;23;20020;-80
2024/01/17 10:16:32;;;;;;;10.25;4.57;;;;;;;;;;5211604;22;19919;-81
2024/01/17 10:18:35;;;;;;;14.18;5.45;;;;;;;;;;5209275;22;20030;-81
2024/01/17 10:20:44;;;;;;;10.43;5.03;;;;;;;;;;5209860;22;20020;-81
2024/01/17 10:22:59;;;;;;;8.50;4.72;;;;;;;;;;5211080;22;20015;-80
2024/01/17 10:25:13;;;;;;;9.23;4.97;;;;;;;;;;5191038;22;20017;-80
2024/01/17 10:27:31;;;;;;;9.52;5.03;;;;;;;;;;5159894;23;20110;-81
2024/01/17 10:29:43;;;;;;;10.43;4.97;;;;;;;;;;5183774;23;20016;-81
2024/01/17 10:31:44;;;;;;;10.15;5.38;;;;;;;;;;5158508;23;20047;-80
2024/01/17 10:33:51;;;;;;;8.63;4.78;;;;;;;;;;5158517;23;20059;-81
2024/01/17 10:35:53;;;;;;;14.18;5.68;;;;;;;;;;5160334;23;20052;-80
2024/01/17 10:38:11;;;;;;;9.15;4.75;;;;;;;;;;5186666;22;20016;-81
2024/01/17 10:40:17;;;;;;;8.18;4.45;;;;;;;;;;5159667;23;20052;-80
2024/01/17 10:42:25;;;;;;;12.43;4.93;;;;;;;;;;5184120;23;20027;-80
2024/01/17 10:44:29;;;;;;;14.93;5.57;;;;;;;;;;5184058;23;20098;-80
2024/01/17 10:46:34;;;;;;;9.57;4.90;;;;;;;;;;5182887;23;20471;-80
2024/01/17 10:48:47;;;;;;;10.02;4.85;;;;;;;;;;5185284;23;20030;-80
2024/01/17 10:50:57;;;;;;;10.30;5.00;;;;;;;;;;5185426;23;20344;-79
2024/01/17 10:53:08;;;;;;;7.75;4.45;;;;;;;;;;5159644;23;20068;-80
2024/01/17 10:55:17;;;;;;;11.27;4.82;;;;;;;;;;5184759;23;20039;-80
2024/01/17 10:59:51;;;;;;;11.45;4.85;;;;;;;;;;5185608;23;20020;-79
2024/01/17 11:02:12;;;;;;;9.15;4.45;;;;;;;;;;5184248;23;20079;-80
2024/01/17 11:04:39;;;;;;;10.88;4.68;;;;;;;;;;5160165;23;20023;-79
2024/01/17 11:06:43;;;;;;;11.40;4.93;;;;;;;;;;5184859;23;20020;-80
2024/01/17 11:09:06;;;;;;;9.98;4.50;;;;;;;;;;5185521;23;20064;-80
2024/01/17 11:11:15;;;;;;;8.15;4.28;;;;;;;;;;5184147;23;20028;-79
2024/01/17 11:13:30;;;;;;;12.00;5.03;;;;;;;;;;5184926;23;20012;-79
2024/01/17 11:15:36;;;;;;;9.32;4.50;;;;;;;;;;5183680;23;20020;-80
2024/01/17 11:17:50;;;;;;;9.65;5.47;;;;;;;;;;5185475;22;20016;-80
2024/01/17 11:19:55;;;;;;;8.93;4.53;;;;;;;;;;5187348;22;20027;-78
2024/01/17 11:22:02;;;;;;;9.23;4.38;;;;;;;;;;5188123;22;20015;-80
2024/01/17 11:24:25;;;;;;;12.02;4.45;;;;;;;;;;5193543;22;20079;-80
2024/01/17 11:26:42;;;;;;;8.70;4.03;;;;;;;;;;5212958;22;20501;-80
2024/01/17 11:29:03;;;;;;;9.88;5.28;;;;;;;;;;5211438;22;20027;-78
2024/01/17 11:31:26;;;;;;;8.15;4.20;;;;;;;;;;5211989;22;20019;-78
2024/01/17 11:33:33;;;;;;;9.80;5.05;;;;;;;;;;5212518;22;20015;-78
2024/01/17 11:35:53;;;;;;;11.52;4.82;;;;;;;;;;5211750;22;20020;-78
2024/01/17 11:38:02;;;;;;;8.82;4.25;;;;;;;;;;5211653;22;20019;-78
2024/01/17 11:40:04;;;;;;;7.55;4.72;;;;;;;;;;5212709;22;20047;-79
2024/01/17 11:42:14;;;;;;;12.60;4.70;;;;;;;;;;5210688;22;20039;-78
2024/01/17 11:44:17;;;;;;;11.82;5.50;;;;;;;;;;5211415;22;20547;-79
2024/01/17 11:46:19;;;;;;;9.20;4.97;;;;;;;;;;5210880;22;20015;-80
2024/01/17 11:48:25;;;;;;;13.50;5.22;;;;;;;;;;5182761;23;20016;-80
2024/01/17 11:50:30;;;;;;;9.05;4.20;;;;;;;;;;5183905;23;20016;-79
2024/01/17 11:52:37;;;;;;;8.15;4.18;;;;;;;;;;5184258;23;20020;-80
2024/01/17 11:54:41;;;;;;;11.27;4.90;;;;;;;;;;5210691;22;20064;-80
2024/01/17 11:56:44;;;;;;;9.18;4.13;;;;;;;;;;5209064;22;20019;-80
2024/01/17 11:59:00;;;;;;;12.77;5.03;;;;;;;;;;5212048;22;20059;-80
2024/01/17 12:01:06;;;;;;;;;;;;;;;;;;5186414;22;20016;-80
2024/01/17 12:03:10;;;;;;;8.65;4.43;;;;;;;;;;5184631;23;19939;-80
2024/01/17 12:05:14;;;;;;;10.68;4.30;;;;;;;;;;5185787;22;20027;-79
2024/01/17 12:07:20;;;;;;;10.68;4.43;;;;;;;;;;5210851;22;20018;-79
2024/01/17 12:09:32;;;;;;;8.57;4.45;;;;;;;;;;5209011;22;20043;-80
2024/01/17 12:11:38;;;;;;;9.95;5.32;;;;;;;;;;5210427;22;20015;-80
2024/01/17 12:13:53;;;;;;;11.82;4.93;;;;;;;;;;5209268;22;20015;-79
2024/01/17 12:15:56;;;;;;;11.63;5.78;;;;;;;;;;5184673;23;20020;-80
2024/01/17 12:18:05;;;;;;;10.98;4.68;;;;;;;;;;5212828;22;20020;-81
2024/01/17 12:20:08;;;;;;;12.65;5.40;;;;;;;;;;5214321;22;20051;-79
2024/01/17 12:22:10;;;;;;;11.20;4.38;;;;;;;;;;5189428;23;20075;-79
2024/01/17 12:24:11;;;;;;;13.90;4.40;;;;;;;;;;5225206;22;20015;-80
2024/01/17 12:26:15;;;;;;;11.52;5.63;;;;;;;;;;5187834;23;20419;-79
2024/01/17 12:28:19;;;;;;;12.75;5.13;;;;;;;;;;5210472;22;20043;-80
2024/01/17 12:30:28;;;;;;;9.18;4.45;;;;;;;;;;5190655;22;20068;-80
2024/01/17 12:32:31;;;;;;;6.97;4.40;;;;;;;;;;5186723;23;20489;-80
2024/01/17 12:34:43;;;;;;;13.82;5.18;;;;;;;;;;5238720;22;20019;-80
2024/01/17 12:36:49;;;;;;;13.43;5.10;;;;;;;;;;5238466;22;20062;-80
2024/01/17 12:38:54;;;;;;;18.40;5.38;;;;;;;;;;5238248;22;20015;-80
2024/01/17 12:40:58;;;;;;;10.82;4.65;;;;;;;;;;5185025;23;20020;-80
2024/01/17 12:43:06;;;;;;;12.55;5.00;;;;;;;;;;5210056;22;20049;-79
2024/01/17 12:45:09;;;;;;;13.02;5.38;;;;;;;;;;5235905;22;20051;-80
2024/01/17 12:47:15;;;;;;;10.82;4.95;;;;;;;;;;5208956;22;20027;-80
2024/01/17 12:49:24;;;;;;;7.90;4.65;;;;;;;;;;5208046;22;20046;-80
2024/01/17 12:51:27;;;;;;;12.45;5.18;;;;;;;;;;5183000;23;20092;-80
2024/01/17 12:53:33;;;;;;;10.73;5.25;;;;;;;;;;5183571;23;20064;-79
2024/01/17 12:55:41;;;;;;;15.48;5.70;;;;;;;;;;5209179;22;20046;-80
2024/01/17 12:57:52;;;;;;;10.07;4.55;;;;;;;;;;5207586;22;20027;-80
2024/01/17 12:59:54;;;;;;;13.05;4.78;;;;;;;;;;5182865;23;20047;-79
2024/01/17 13:01:59;;;;;;;11.20;4.70;;;;;;;;;;5209079;22;20043;-79
2024/01/17 13:04:08;;;;;;;8.23;4.38;;;;;;;;;;5234820;22;20037;-79
2024/01/17 13:06:15;;;;;;;14.55;6.82;;;;;;;;;;5182016;23;20446;-80